Track Слепенков Матвей

Time Latitude Longitude Accuracy (66% radius in meters) Altitude (meters) Speed (km/hour) Bearing (degrees) Battery (%) GPS flag
07:23:54 57.212509 60.118488 0 0 0 0 1 delete
07:23:50 57.212611 60.118528 0 0 0 0 1 delete
07:23:45 57.212690 60.118481 0 0 0 0 1 delete
07:23:39 57.212734 60.118358 0 0 0 0 1 delete
07:23:33 57.212773 60.118236 0 0 0 0 1 delete
07:23:27 57.212799 60.118103 0 0 0 0 1 delete
07:23:16 57.212797 60.117940 0 0 0 0 1 delete
07:23:09 57.212859 60.117830 0 0 0 0 1 delete
07:23:06 57.212905 60.117938 0 0 0 0 1 delete
07:23:02 57.212970 60.118058 0 0 0 0 1 delete
07:22:58 57.213047 60.118129 0 0 0 0 1 delete
07:22:53 57.213128 60.118168 0 0 0 0 1 delete
07:22:47 57.213194 60.118204 0 0 0 0 1 delete
07:22:42 57.213250 60.118109 0 0 0 0 1 delete
07:22:36 57.213290 60.117980 0 0 0 0 1 delete
07:22:30 57.213323 60.117854 0 0 0 0 1 delete
07:22:25 57.213384 60.117744 0 0 0 0 1 delete
07:22:17 57.213409 60.117612 0 0 0 0 1 delete
07:22:12 57.213465 60.117474 0 0 0 0 1 delete
07:22:06 57.213527 60.117341 0 0 0 0 1 delete
07:22:03 57.213534 60.117189 0 0 0 0 1 delete
07:21:59 57.213498 60.117004 0 0 0 0 1 delete
07:21:56 57.213443 60.116844 0 0 0 0 1 delete
07:21:52 57.213343 60.116864 0 0 0 0 1 delete
07:21:49 57.213260 60.116788 0 0 0 0 1 delete
07:21:45 57.213185 60.116666 0 0 0 0 1 delete
07:21:41 57.213147 60.116529 0 0 0 0 1 delete
07:21:36 57.213156 60.116379 0 0 0 0 1 delete
07:21:33 57.213139 60.116252 0 0 0 0 1 delete
07:21:30 57.213096 60.116127 0 0 0 0 1 delete
07:21:27 57.213107 60.115996 0 0 0 0 1 delete
07:21:24 57.213123 60.115848 0 0 0 0 1 delete
07:21:21 57.213130 60.115664 0 0 0 0 1 delete
07:21:18 57.213124 60.115498 0 0 0 0 1 delete
07:21:13 57.213139 60.115318 0 0 0 0 1 delete
07:21:10 57.213206 60.115233 0 0 0 0 1 delete
07:21:07 57.213270 60.115112 0 0 0 0 1 delete
07:21:04 57.213296 60.114947 0 0 0 0 1 delete
07:21:02 57.213271 60.114813 0 0 0 0 1 delete
07:20:59 57.213207 60.114722 0 0 0 0 1 delete
07:20:57 57.213160 60.114623 0 0 0 0 1 delete
07:20:54 57.213102 60.114473 0 0 0 0 1 delete
07:20:51 57.213038 60.114351 0 0 0 0 1 delete
07:20:45 57.212978 60.114244 0 0 0 0 1 delete
07:20:42 57.212891 60.114171 0 0 0 0 1 delete
07:20:39 57.212811 60.114232 0 0 0 0 1 delete
07:20:36 57.212744 60.114137 0 0 0 0 1 delete
07:20:33 57.212652 60.114017 0 0 0 0 1 delete
07:20:30 57.212607 60.113881 0 0 0 0 1 delete
07:20:27 57.212623 60.113726 0 0 0 0 1 delete